KPIT/PIT METAR and TAF weather

Enter ICAO airport designator
Station Type Date Time Source
KPIT METAR 2022/01/29 09:51 UTC NOAA

KPIT 290951Z 33010KT 10SM FEW010 BKN075 M14/M17 A3004 RMK AO2 SLP200 T11391172


Station Type Date Time Source
KPIT Decoded METAR 2022/01/29 09:51 UTC NOAA

GREATER PITTSBURGH INTERNATIONAL , PA, United States (KPIT) 40-29N 80-14W 357M
Jan 29, 2022 - 04:51 AM EST / 2022.01.29 0951 UTC
Wind: from the NNW (330 degrees) at 12 MPH (10 KT):0
Visibility: 10 mile(s):0
Sky conditions: mostly cloudy
Temperature: 7.0 F (-13.9 C)
Windchill: -9 F (-23 C):2
Dew Point: 1.0 F (-17.2 C)
Relative Humidity: 76%
Pressure (altimeter): 30.04 in. Hg (1017 hPa)
ob: KPIT 290951Z 33010KT 10SM FEW010 BKN075 M14/M17 A3004 RMK AO2 SLP200 T11391172
cycle: 10

Station Type Date Time Source
KPIT TAF 2022/01/29 09:03 UTC NOAA

TAF
AMD KPIT 290900Z 2909/3012 34010KT P6SM SCT050
FM291300 35010G18KT P6SM BKN015
FM291700 33010KT P6SM SCT025
FM292300 30005KT P6SM SKC

Example: see airport list